EFJY

Jyvaskyla Airport

Jyväskylän Maalaiskunta, Finland
METAR EFJY 161750Z AUTO 29006KT 9999 -SN OVC025 M08/M09 Q0992
Observed Flight Rules
Jan-16 @ 17:50 UTC (34 minutes ago) Marginal Visual Flight Rules
Wind Visibility Clouds Conditions
290° at 6 knots 10,000+ meters
  • Overcast at 2,500' AGL
  • Light Snow
Temperatures Readings
Current -8°C / 18°F
Dewpoint -9°C / 16°F
Humidity 93%
Altimeter 29.29" Hg
Pressure 991.92 hPa
Elevation 145
METAR EFJY 161750Z AUTO 29006KT 9999 -SN OVC025 M08/M09 Q0992
Observed Flight Rules
Jan-16 @ 17:50 UTC
(34 minutes ago)
MVFR
Wind Visibility
290° at 6 knots 10,000+ meters
Clouds
  • Overcast at 2,500' AGL
Conditions
  • Light Snow
Temperature Dewpoint
-8°C / 18°F -9°C / 16°F
Humidity Altimeter Pressure
93% 29.29" Hg 991.92 hPa